METAR metoinfo z LKNA (Náměšť nad Oslavou

Orig link LKNA zde

 

LKNA 021650Z 29016KT 9999 -SN FEW020 BKN029 02/M02 Q1018 RMK BLU

 

 

Permanent link to this article: http://www.airfly.cz/2018/06/26/metar-metoinfo-z-lkna-namest-nad-oslavou/

Napsat komentář